Time;durP1;ratioP1;P1;durP2;ratioP2;P2;SDS_P1;SDS_P2;PMS_P1;PMS_P2;Temp;Humidity;BMP_temperature;BMP_pressure;BME280_temperature;BME280_humidity;BME280_pressure;Samples;Min_cycle;Max_cycle;Signal;HPM_P1;HPM_P2
2023/08/26 09:40:28;;;;;;;;;;;;;;;22.74;100.00;95432.00;10068088;29;5501;-75
2023/08/26 09:45:30;;;;;;;;;;;;;;;22.61;100.00;95437.59;10080809;29;1975;-74
2023/08/26 09:50:32;;;;;;;;;;;;;;;23.08;100.00;95419.38;10087006;29;1909;-73
2023/08/26 09:55:35;;;;;;;;;;;;;;;24.11;100.00;95421.22;10082383;29;2007;-72
2023/08/26 10:00:38;;;;;;;;;;;;;;;24.48;100.00;95406.84;10079043;29;2015;-71
2023/08/26 10:05:40;;;;;;;;;;;;;;;25.06;100.00;95385.22;10090378;29;2006;-83
2023/08/26 10:10:43;;;;;;;;;;;;;;;25.52;100.00;95370.38;10084521;29;2031;-80
2023/08/26 10:15:45;;;;;;;;;;;;;;;25.52;100.00;95356.63;10088195;29;1999;-80
2023/08/26 10:20:48;;;;;;;;;;;;;;;25.18;100.00;95348.41;10088419;29;1937;-78
2023/08/26 10:25:51;;;;;;;;;;;;;;;25.94;100.00;95347.13;10079434;29;1952;-79
2023/08/26 10:30:54;;;;;;;;;;;;;;;25.79;100.00;95332.47;10082460;29;1981;-79
2023/08/26 10:35:56;;;;;;;;;;;;;;;25.97;100.00;95321.59;10121672;29;2024;-80
2023/08/26 10:40:59;;;;;;;;;;;;;;;26.06;100.00;95317.31;10163807;29;1920;-80
2023/08/26 10:46:01;;;;;;;;;;;;;;;25.69;100.00;95302.88;10164553;29;2301;-80
2023/08/26 10:51:04;;;;;;;;;;;;;;;26.26;100.00;95286.72;10175972;29;2124;-79
2023/08/26 10:56:07;;;;;;;;;;;;;;;25.64;100.00;95284.78;10191681;29;1972;-76
2023/08/26 11:01:09;;;;;;;;;;;;;;;25.70;100.00;95280.47;10183144;29;1964;-77
2023/08/26 11:06:13;;;;;;;;;;;;;;;26.40;100.00;95273.03;10187717;29;2014;-79
2023/08/26 11:11:15;;;;;;;;;;;;;;;26.01;100.00;95270.84;10182187;29;2000;-78
2023/08/26 11:16:17;;;;;;;;;;;;;;;26.25;100.00;95266.66;10185687;29;1984;-79
2023/08/26 11:21:20;;;;;;;;;;;;;;;25.47;100.00;95268.91;10177081;29;1938;-79
2023/08/26 11:26:24;;;;;;;;;;;;;;;25.96;100.00;95262.16;10178165;29;1963;-79
2023/08/26 11:31:27;;;;;;;;;;;;;;;25.97;100.00;95252.75;10155616;29;2016;-74
2023/08/26 11:36:29;;;;;;;;;;;;;;;26.06;100.00;95250.44;10114387;29;2222;-75
2023/08/26 11:41:31;;;;;;;;;;;;;;;26.08;100.00;95243.38;10123497;29;2210;-75
2023/08/26 11:46:34;;;;;;;;;;;;;;;26.15;100.00;95226.09;10127444;29;1972;-73
2023/08/26 11:51:36;;;;;;;;;;;;;;;25.99;100.00;95225.59;10121011;29;1945;-74
2023/08/26 11:56:39;;;;;;;;;;;;;;;25.70;100.00;95217.16;10118480;29;2029;-73
2023/08/26 12:01:41;;;;;;;;;;;;;;;25.58;100.00;95217.50;10126334;29;1960;-75
2023/08/26 12:06:44;;;;;;;;;;;;;;;26.16;100.00;95208.38;10127584;29;1929;-74
2023/08/26 12:11:46;;;;;;;;;;;;;;;26.59;100.00;95203.00;10122986;29;2251;-73
2023/08/26 12:16:49;;;;;;;;;;;;;;;26.25;100.00;95197.78;10120681;29;2044;-72
2023/08/26 12:21:51;;;;;;;;;;;;;;;25.79;100.00;95187.34;10123020;29;2220;-71
2023/08/26 12:26:54;;;;;;;;;;;;;;;25.92;100.00;95170.50;10128584;29;1686;-72
2023/08/26 12:31:56;;;;;;;;;;;;;;;26.14;100.00;95156.41;10108701;29;1955;-71
2023/08/26 12:36:59;;;;;;;;;;;;;;;26.42;100.00;95146.69;10121853;29;2010;-73
2023/08/26 12:42:01;;;;;;;;;;;;;;;26.71;100.00;95147.50;10125803;29;1923;-73
2023/08/26 12:47:04;;;;;;;;;;;;;;;27.18;100.00;95121.53;10122388;29;1620;-73
2023/08/26 12:52:06;;;;;;;;;;;;;;;26.81;100.00;95107.34;10124711;29;1911;-72
2023/08/26 12:57:09;;;;;;;;;;;;;;;26.17;100.00;95090.72;10126292;29;2001;-71
2023/08/26 13:02:11;;;;;;;;;;;;;;;26.37;100.00;95073.44;10124478;29;1596;-74
2023/08/26 13:07:14;;;;;;;;;;;;;;;26.24;100.00;95086.00;10121730;29;1613;-76
2023/08/26 13:12:16;;;;;;;;;;;;;;;26.57;100.00;95092.38;10125183;29;1920;-74
2023/08/26 13:17:19;;;;;;;;;;;;;;;26.35;100.00;95097.06;10123040;29;1986;-73
2023/08/26 13:22:21;;;;;;;;;;;;;;;25.68;100.00;95084.63;10117616;29;1956;-72
2023/08/26 13:27:23;;;;;;;;;;;;;;;26.14;100.00;95070.25;10135142;29;1912;-72
2023/08/26 13:32:26;;;;;;;;;;;;;;;26.13;100.00;95055.69;10125112;29;2038;-73
2023/08/26 13:37:29;;;;;;;;;;;;;;;25.70;100.00;95035.47;10121792;29;1980;-72
2023/08/26 13:42:31;;;;;;;;;;;;;;;25.55;100.00;95012.66;10121786;29;1790;-73
2023/08/26 13:47:33;;;;;;;;;;;;;;;25.09;100.00;95034.47;10121954;29;1986;-73
2023/08/26 13:52:36;;;;;;;;;;;;;;;24.49;100.00;95040.28;10120591;29;1438;-73
2023/08/26 13:57:38;;;;;;;;;;;;;;;24.34;100.00;95053.13;10122126;29;1907;-72
2023/08/26 14:02:41;;;;;;;;;;;;;;;24.04;100.00;95088.09;10118723;29;1461;-73
2023/08/26 14:07:44;;;;;;;;;;;;;;;23.94;100.00;95087.63;10121693;29;1472;-74
2023/08/26 14:12:47;;;;;;;;;;;;;;;23.93;100.00;95096.25;10124161;29;1561;-75
2023/08/26 14:17:49;;;;;;;;;;;;;;;23.45;100.00;95099.56;10126997;29;1914;-72
2023/08/26 14:22:51;;;;;;;;;;;;;;;23.16;100.00;95158.72;10120111;29;1526;-73
2023/08/26 14:27:54;;;;;;;;;;;;;;;23.24;100.00;95188.97;10126396;29;1484;-72
2023/08/26 14:32:57;;;;;;;;;;;;;;;21.89;100.00;95222.91;10130740;29;1394;-74
2023/08/26 14:37:59;;;;;;;;;;;;;;;18.19;100.00;95269.19;10127493;29;1938;-77
2023/08/26 14:43:02;;;;;;;;;;;;;;;16.54;100.00;95320.03;10131521;29;1963;-72
2023/08/26 14:48:05;;;;;;;;;;;;;;;15.83;100.00;95382.75;10128684;29;2040;-74
2023/08/26 14:53:07;;;;;;;;;;;;;;;15.54;100.00;95440.97;10127422;29;2102;-73
2023/08/26 14:58:10;;;;;;;;;;;;;;;15.30;100.00;95445.97;10129216;29;2177;-74
2023/08/26 15:03:12;;;;;;;;;;;;;;;14.94;100.00;95432.53;10124292;29;2120;-71
2023/08/26 15:08:15;;;;;;;;;;;;;;;14.89;100.00;95425.38;10122358;29;7151;-73
2023/08/26 15:13:18;;;;;;;;;;;;;;;14.80;100.00;95376.59;10129136;29;5495;-77
2023/08/26 15:18:20;;;;;;;;;;;;;;;14.77;100.00;95325.00;10133821;29;5547;-79
2023/08/26 15:23:24;;;;;;;;;;;;;;;15.08;100.00;95431.38;10132847;29;1941;-81
2023/08/26 15:28:26;;;;;;;;;;;;;;;15.37;100.00;95443.59;10131241;29;2013;-80
2023/08/26 15:33:29;;;;;;;;;;;;;;;16.00;100.00;95476.84;10127672;29;1913;-78
2023/08/26 15:38:31;;;;;;;;;;;;;;;16.98;100.00;95514.31;10128077;29;2204;-77
2023/08/26 15:43:33;;;;;;;;;;;;;;;18.60;100.00;95523.38;10129294;29;5523;-78
2023/08/26 15:48:37;;;;;;;;;;;;;;;18.93;100.00;95503.63;10123850;29;1973;-78
2023/08/26 15:53:39;;;;;;;;;;;;;;;18.53;100.00;95452.34;10128868;29;2039;-78
2023/08/26 15:58:42;;;;;;;;;;;;;;;18.95;100.00;95504.09;10127212;29;1980;-77
2023/08/26 16:03:45;;;;;;;;;;;;;;;19.09;100.00;95507.34;10128921;29;1930;-78
2023/08/26 16:08:47;;;;;;;;;;;;;;;18.34;100.00;95472.66;10127328;29;2149;-77
2023/08/26 16:13:50;;;;;;;;;;;;;;;18.94;100.00;95480.72;10127238;29;2338;-77
2023/08/26 16:18:52;;;;;;;;;;;;;;;18.85;100.00;95492.47;10128498;29;2096;-77
2023/08/26 16:23:55;;;;;;;;;;;;;;;18.83;100.00;95499.38;10127377;29;2061;-78
2023/08/26 16:28:57;;;;;;;;;;;;;;;18.87;100.00;95490.22;10127477;29;2064;-76
2023/08/26 16:33:59;;;;;;;;;;;;;;;18.59;100.00;95486.41;10124741;29;1988;-77
2023/08/26 16:39:03;;;;;;;;;;;;;;;18.74;100.00;95510.34;10121363;29;1976;-78
2023/08/26 16:44:05;;;;;;;;;;;;;;;18.99;100.00;95505.03;10121276;29;1996;-78
2023/08/26 16:49:08;;;;;;;;;;;;;;;18.90;100.00;95497.72;10126945;29;2056;-77
2023/08/26 16:54:10;;;;;;;;;;;;;;;18.94;100.00;95491.59;10119420;29;2067;-78
2023/08/26 16:59:12;;;;;;;;;;;;;;;18.86;100.00;95477.72;10124896;29;2000;-77
2023/08/26 17:04:15;;;;;;;;;;;;;;;19.07;100.00;95471.47;10125166;29;1988;-75
2023/08/26 17:09:19;;;;;;;;;;;;;;;18.98;100.00;95457.94;10121354;29;1997;-78
2023/08/26 17:14:22;;;;;;;;;;;;;;;18.98;100.00;95462.59;10120243;29;5197;-77
2023/08/26 17:19:27;;;;;;;;;;;;;;;18.97;100.00;95469.16;10121043;29;1990;-78
2023/08/26 17:24:30;;;;;;;;;;;;;;;19.14;100.00;95468.97;10122509;29;1917;-76
2023/08/26 17:29:34;;;;;;;;;;;;;;;18.59;100.00;95476.31;10115627;29;1925;-76
2023/08/26 17:34:36;;;;;;;;;;;;;;;18.69;100.00;95499.63;10117962;29;1988;-77
2023/08/26 17:39:39;;;;;;;;;;;;;;;18.56;100.00;95506.91;10115223;29;2046;-78
2023/08/26 17:44:41;;;;;;;;;;;;;;;18.36;100.00;95484.00;10119172;29;2119;-76
2023/08/26 17:49:43;;;;;;;;;;;;;;;18.41;100.00;95465.88;10117473;29;2182;-76
2023/08/26 17:54:46;;;;;;;;;;;;;;;18.68;100.00;95470.03;10118503;29;1972;-74
2023/08/26 17:59:48;;;;;;;;;;;;;;;19.09;100.00;95482.84;10119132;29;1905;-77
2023/08/26 18:04:51;;;;;;;;;;;;;;;19.08;100.00;95478.50;10114896;29;1925;-80
2023/08/26 18:09:53;;;;;;;;;;;;;;;19.07;100.00;95474.97;10116731;29;1937;-77
2023/08/26 18:14:56;;;;;;;;;;;;;;;18.97;100.00;95477.34;10111420;29;1970;-76
2023/08/26 18:19:58;;;;;;;;;;;;;;;19.20;100.00;95477.75;10118118;29;1917;-76
2023/08/26 18:25:01;;;;;;;;;;;;;;;18.82;100.00;95484.16;10117419;29;1902;-78
2023/08/26 18:30:04;;;;;;;;;;;;;;;18.95;100.00;95479.56;10119352;29;2336;-77
2023/08/26 18:35:07;;;;;;;;;;;;;;;19.11;100.00;95488.72;10116266;29;1926;-76
2023/08/26 18:40:09;;;;;;;;;;;;;;;18.81;100.00;95472.47;10125024;29;1948;-77
2023/08/26 18:45:12;;;;;;;;;;;;;;;19.18;100.00;95472.63;10117214;29;2093;-78
2023/08/26 18:50:14;;;;;;;;;;;;;;;19.63;100.00;95466.41;10122830;29;1965;-77
2023/08/26 18:55:16;;;;;;;;;;;;;;;19.57;100.00;95467.75;10117684;29;1994;-76
2023/08/26 19:00:19;;;;;;;;;;;;;;;19.52;100.00;95457.03;10116288;29;1936;-76
2023/08/26 19:05:21;;;;;;;;;;;;;;;19.22;100.00;95459.94;10119820;29;2011;-77
2023/08/26 19:10:24;;;;;;;;;;;;;;;19.33;100.00;95452.91;10118898;29;1883;-76
2023/08/26 19:15:26;;;;;;;;;;;;;;;19.63;100.00;95461.75;10120344;29;5075;-75
2023/08/26 19:20:29;;;;;;;;;;;;;;;19.57;100.00;95473.19;10129748;29;2386;-77
2023/08/26 19:25:31;;;;;;;;;;;;;;;19.43;100.00;95487.94;10126843;29;1972;-76
2023/08/26 19:30:33;;;;;;;;;;;;;;;19.59;100.00;95490.81;10127029;29;2008;-77
2023/08/26 19:35:36;;;;;;;;;;;;;;;19.41;100.00;95498.38;10120592;29;2061;-76
2023/08/26 19:40:38;;;;;;;;;;;;;;;19.37;100.00;95485.75;10120363;29;2049;-77
2023/08/26 19:45:41;;;;;;;;;;;;;;;19.50;100.00;95479.19;10125851;29;1949;-76
2023/08/26 19:50:44;;;;;;;;;;;;;;;19.30;100.00;95490.97;10120552;29;1992;-77
2023/08/26 19:55:46;;;;;;;;;;;;;;;19.52;100.00;95500.66;10115279;29;2121;-76
2023/08/26 20:00:48;;;;;;;;;;;;;;;19.25;100.00;95510.25;10118218;29;2347;-74
2023/08/26 20:05:51;;;;;;;;;;;;;;;19.30;100.00;95521.72;10122902;29;1968;-76
2023/08/26 20:10:53;;;;;;;;;;;;;;;19.21;100.00;95518.28;10116859;29;2198;-77
2023/08/26 20:15:56;;;;;;;;;;;;;;;18.69;100.00;95521.44;10116690;29;5220;-75
2023/08/26 20:20:58;;;;;;;;;;;;;;;18.49;100.00;95527.63;10119649;29;1992;-74
2023/08/26 20:26:01;;;;;;;;;;;;;;;18.48;100.00;95531.47;10122981;29;1918;-75
2023/08/26 20:31:04;;;;;;;;;;;;;;;18.39;100.00;95511.69;10123632;29;1998;-78
2023/08/26 20:36:06;;;;;;;;;;;;;;;18.44;100.00;95519.63;10121241;29;1969;-75
2023/08/26 20:41:08;;;;;;;;;;;;;;;18.40;100.00;95535.06;10120984;29;1922;-76
2023/08/26 20:46:11;;;;;;;;;;;;;;;18.55;100.00;95537.19;10121510;29;1962;-74
2023/08/26 20:51:14;;;;;;;;;;;;;;;18.32;100.00;95513.00;10113580;29;2010;-77
2023/08/26 20:56:17;;;;;;;;;;;;;;;18.23;100.00;95525.84;10121875;29;2359;-85
2023/08/26 21:01:19;;;;;;;;;;;;;;;18.18;100.00;95528.75;10130452;29;2001;-84
2023/08/26 21:06:22;;;;;;;;;;;;;;;18.07;100.00;95522.91;10132049;29;2016;-84
2023/08/26 21:11:24;;;;;;;;;;;;;;;18.14;100.00;95519.66;10135604;29;1938;-84
2023/08/26 21:16:27;;;;;;;;;;;;;;;18.00;100.00;95516.34;10130920;29;2025;-83
2023/08/26 21:21:29;;;;;;;;;;;;;;;17.91;100.00;95505.50;10134092;29;1886;-83
2023/08/26 21:26:33;;;;;;;;;;;;;;;17.69;100.00;95486.72;10134398;29;2083;-84
2023/08/26 21:31:36;;;;;;;;;;;;;;;17.65;100.00;95500.16;10129977;29;1917;-82
2023/08/26 21:36:39;;;;;;;;;;;;;;;17.63;100.00;95486.09;10128003;29;2028;-80
2023/08/26 21:41:42;;;;;;;;;;;;;;;17.67;100.00;95475.34;10123444;29;1901;-82
2023/08/26 21:46:44;;;;;;;;;;;;;;;17.44;100.00;95474.81;10127169;29;1965;-81
2023/08/26 21:51:46;;;;;;;;;;;;;;;17.37;100.00;95463.63;10117526;29;1961;-81
2023/08/26 21:56:49;;;;;;;;;;;;;;;17.40;100.00;95449.41;10118832;29;1991;-82
2023/08/26 22:01:51;;;;;;;;;;;;;;;17.52;100.00;95461.19;10120330;29;2197;-81
2023/08/26 22:06:54;;;;;;;;;;;;;;;17.54;100.00;95461.66;10128785;29;1970;-82
2023/08/26 22:11:56;;;;;;;;;;;;;;;17.66;100.00;95447.38;10126882;29;2019;-82
2023/08/26 22:16:58;;;;;;;;;;;;;;;17.65;100.00;95434.13;10121037;29;5232;-81
2023/08/26 22:22:01;;;;;;;;;;;;;;;17.83;100.00;95428.31;10120143;29;2242;-81
2023/08/26 22:27:03;;;;;;;;;;;;;;;17.69;100.00;95440.50;10128222;29;1887;-80
2023/08/26 22:32:06;;;;;;;;;;;;;;;17.72;100.00;95439.88;10128558;29;1975;-80
2023/08/26 22:37:08;;;;;;;;;;;;;;;17.74;100.00;95424.81;10121516;29;1951;-81
2023/08/26 22:42:11;;;;;;;;;;;;;;;17.64;100.00;95424.38;10123562;29;1919;-82
2023/08/26 22:47:13;;;;;;;;;;;;;;;17.65;100.00;95412.38;10126559;29;2183;-82
2023/08/26 22:52:16;;;;;;;;;;;;;;;17.52;100.00;95412.28;10129624;29;2317;-83
2023/08/26 22:57:18;;;;;;;;;;;;;;;17.61;100.00;95400.56;10130743;29;2029;-81
2023/08/26 23:02:21;;;;;;;;;;;;;;;17.42;100.00;95384.66;10127506;29;1980;-82
2023/08/26 23:07:27;;;;;;;;;;;;;;;17.30;100.00;95358.16;10146769;29;1885;-81
2023/08/26 23:12:30;;;;;;;;;;;;;;;17.23;100.00;95364.13;10132336;29;1922;-79
2023/08/26 23:17:32;;;;;;;;;;;;;;;17.28;100.00;95369.38;10124778;29;4542;-81
2023/08/26 23:22:35;;;;;;;;;;;;;;;17.38;100.00;95342.97;10123050;29;1974;-81
2023/08/26 23:27:37;;;;;;;;;;;;;;;17.38;100.00;95332.91;10124108;29;2062;-78
2023/08/26 23:32:39;;;;;;;;;;;;;;;17.39;100.00;95317.41;10120468;29;1901;-80
2023/08/26 23:37:42;;;;;;;;;;;;;;;17.34;100.00;95304.00;10120500;29;1981;-81
2023/08/26 23:42:44;;;;;;;;;;;;;;;17.33;100.00;95310.56;10122888;29;2003;-79
2023/08/26 23:47:47;;;;;;;;;;;;;;;17.32;100.00;95306.25;10124372;29;2046;-79
2023/08/26 23:52:49;;;;;;;;;;;;;;;17.46;100.00;95294.00;10125362;29;1995;-79
2023/08/26 23:57:52;;;;;;;;;;;;;;;17.38;100.00;95275.06;10134205;29;1906;-78
